Terminal Aerodrome Forecast
Issued by NWS

Home | Current Version | Previous Version | Text Only | Print | Product List | Glossary On
Versions: 1 2 3 4 5 6 7 8 9 10 11 12 13 14 15
000
FTUS44 KLIX 011100
TAFMSY
TAF
KMSY 011132Z 0112/0212 08008KT 3/4SM -DZ BR OVC002
     FM011400 11008KT 5SM BR OVC008
     FM020000 10007KT 1SM BR OVC008
      TEMPO 0208/0212 09005KT 1/2SM FG OVC001=

USA.gov is the U.S. government's official web portal to all federal, state and local government web resources and services.